Airport View

Enter AWOS ICAO identifier for current METAR.

ex. KFNL

K6B9 170930Z AUTO 12003KT 10SM CLR M05/M14 A3035 RMK AO2

17 Nov 2019 09:31

Frequency: 120.125

Phone: 315-685-5790

Other Area AWOS: KSYR - KN03 - KITH - KFZY

TAF KSYR 170520Z 1706/1806 10005KT P6SM FEW200 FM180200 VRB03KT P6SM SCT200